sensor_id;sensor_type;location;lat;lon;timestamp;P1;durP1;ratioP1;P2;durP2;ratioP2
23280;SDS011;11809;56.390;-3.266;2023-08-31T00:01:41;2.42;;;1.00;;
23280;SDS011;11809;56.390;-3.266;2023-08-31T00:04:09;1.83;;;0.88;;
23280;SDS011;11809;56.390;-3.266;2023-08-31T00:06:44;3.10;;;0.98;;
23280;SDS011;11809;56.390;-3.266;2023-08-31T00:09:13;2.95;;;1.00;;
23280;SDS011;11809;56.390;-3.266;2023-08-31T00:11:44;1.15;;;0.93;;
23280;SDS011;11809;56.390;-3.266;2023-08-31T00:14:13;1.60;;;0.90;;
23280;SDS011;11809;56.390;-3.266;2023-08-31T00:16:43;1.65;;;0.93;;
23280;SDS011;11809;56.390;-3.266;2023-08-31T00:19:14;2.75;;;0.90;;
23280;SDS011;11809;56.390;-3.266;2023-08-31T00:21:46;3.85;;;0.98;;
23280;SDS011;11809;56.390;-3.266;2023-08-31T00:24:13;1.92;;;0.93;;
23280;SDS011;11809;56.390;-3.266;2023-08-31T00:26:41;2.03;;;1.00;;
23280;SDS011;11809;56.390;-3.266;2023-08-31T00:29:09;1.80;;;0.93;;
23280;SDS011;11809;56.390;-3.266;2023-08-31T00:31:45;2.75;;;0.95;;
23280;SDS011;11809;56.390;-3.266;2023-08-31T00:34:15;1.23;;;0.93;;
23280;SDS011;11809;56.390;-3.266;2023-08-31T00:36:44;4.45;;;1.02;;
23280;SDS011;11809;56.390;-3.266;2023-08-31T00:39:12;1.60;;;1.00;;
23280;SDS011;11809;56.390;-3.266;2023-08-31T00:41:39;2.28;;;1.10;;
23280;SDS011;11809;56.390;-3.266;2023-08-31T00:44:07;2.00;;;0.90;;
23280;SDS011;11809;56.390;-3.266;2023-08-31T00:46:34;6.05;;;1.17;;
23280;SDS011;11809;56.390;-3.266;2023-08-31T00:49:03;4.93;;;1.08;;
23280;SDS011;11809;56.390;-3.266;2023-08-31T00:51:33;4.50;;;0.80;;
23280;SDS011;11809;56.390;-3.266;2023-08-31T00:54:01;4.88;;;1.10;;
23280;SDS011;11809;56.390;-3.266;2023-08-31T00:56:29;2.05;;;0.90;;
23280;SDS011;11809;56.390;-3.266;2023-08-31T00:58:56;2.67;;;0.82;;
23280;SDS011;11809;56.390;-3.266;2023-08-31T01:04:21;2.75;;;0.90;;
23280;SDS011;11809;56.390;-3.266;2023-08-31T01:07:09;3.05;;;0.95;;
23280;SDS011;11809;56.390;-3.266;2023-08-31T01:09:43;2.78;;;1.00;;
23280;SDS011;11809;56.390;-3.266;2023-08-31T01:12:15;1.73;;;0.90;;
23280;SDS011;11809;56.390;-3.266;2023-08-31T01:14:59;2.17;;;0.93;;
23280;SDS011;11809;56.390;-3.266;2023-08-31T01:17:32;2.58;;;0.95;;
23280;SDS011;11809;56.390;-3.266;2023-08-31T01:20:03;3.45;;;1.00;;
23280;SDS011;11809;56.390;-3.266;2023-08-31T01:25:22;2.65;;;0.90;;
23280;SDS011;11809;56.390;-3.266;2023-08-31T01:27:50;2.45;;;1.10;;
23280;SDS011;11809;56.390;-3.266;2023-08-31T01:30:18;1.90;;;1.00;;
23280;SDS011;11809;56.390;-3.266;2023-08-31T01:32:46;2.67;;;1.00;;
23280;SDS011;11809;56.390;-3.266;2023-08-31T01:35:16;1.00;;;0.90;;
23280;SDS011;11809;56.390;-3.266;2023-08-31T01:37:56;1.25;;;0.93;;
23280;SDS011;11809;56.390;-3.266;2023-08-31T01:40:28;1.00;;;0.80;;
23280;SDS011;11809;56.390;-3.266;2023-08-31T01:43:03;3.70;;;0.90;;
23280;SDS011;11809;56.390;-3.266;2023-08-31T01:45:32;1.85;;;1.08;;
23280;SDS011;11809;56.390;-3.266;2023-08-31T01:48:05;2.45;;;1.00;;
23280;SDS011;11809;56.390;-3.266;2023-08-31T01:50:32;0.85;;;0.73;;
23280;SDS011;11809;56.390;-3.266;2023-08-31T01:53:00;2.15;;;0.98;;
23280;SDS011;11809;56.390;-3.266;2023-08-31T01:55:27;1.00;;;0.75;;
23280;SDS011;11809;56.390;-3.266;2023-08-31T01:57:55;3.13;;;0.80;;
23280;SDS011;11809;56.390;-3.266;2023-08-31T02:00:22;0.93;;;0.80;;
23280;SDS011;11809;56.390;-3.266;2023-08-31T02:02:50;2.25;;;0.70;;
23280;SDS011;11809;56.390;-3.266;2023-08-31T02:05:17;0.85;;;0.77;;
23280;SDS011;11809;56.390;-3.266;2023-08-31T02:07:45;1.30;;;0.95;;
23280;SDS011;11809;56.390;-3.266;2023-08-31T02:10:12;1.10;;;0.85;;
23280;SDS011;11809;56.390;-3.266;2023-08-31T02:12:40;1.35;;;0.95;;
23280;SDS011;11809;56.390;-3.266;2023-08-31T02:15:07;1.27;;;0.88;;
23280;SDS011;11809;56.390;-3.266;2023-08-31T02:17:35;2.35;;;1.35;;
23280;SDS011;11809;56.390;-3.266;2023-08-31T02:20:03;2.13;;;0.88;;
23280;SDS011;11809;56.390;-3.266;2023-08-31T02:22:33;3.58;;;0.80;;
23280;SDS011;11809;56.390;-3.266;2023-08-31T02:25:02;1.77;;;0.93;;
23280;SDS011;11809;56.390;-3.266;2023-08-31T02:27:29;1.38;;;0.77;;
23280;SDS011;11809;56.390;-3.266;2023-08-31T02:29:57;0.95;;;0.95;;
23280;SDS011;11809;56.390;-3.266;2023-08-31T02:32:24;4.95;;;0.90;;
23280;SDS011;11809;56.390;-3.266;2023-08-31T02:34:52;2.45;;;1.05;;
23280;SDS011;11809;56.390;-3.266;2023-08-31T02:37:20;1.13;;;0.70;;
23280;SDS011;11809;56.390;-3.266;2023-08-31T02:39:47;1.40;;;0.90;;
23280;SDS011;11809;56.390;-3.266;2023-08-31T02:42:14;0.90;;;0.77;;
23280;SDS011;11809;56.390;-3.266;2023-08-31T02:44:41;2.40;;;0.70;;
23280;SDS011;11809;56.390;-3.266;2023-08-31T02:47:09;2.30;;;0.70;;
23280;SDS011;11809;56.390;-3.266;2023-08-31T02:49:36;0.82;;;0.80;;
23280;SDS011;11809;56.390;-3.266;2023-08-31T02:52:04;4.75;;;0.90;;
23280;SDS011;11809;56.390;-3.266;2023-08-31T02:54:31;4.03;;;0.90;;
23280;SDS011;11809;56.390;-3.266;2023-08-31T02:56:59;3.20;;;0.70;;
23280;SDS011;11809;56.390;-3.266;2023-08-31T02:59:27;1.08;;;0.88;;
23280;SDS011;11809;56.390;-3.266;2023-08-31T03:01:54;0.88;;;0.80;;
23280;SDS011;11809;56.390;-3.266;2023-08-31T03:04:21;1.30;;;0.70;;
23280;SDS011;11809;56.390;-3.266;2023-08-31T03:06:49;2.55;;;0.80;;
23280;SDS011;11809;56.390;-3.266;2023-08-31T03:09:16;0.70;;;0.70;;
23280;SDS011;11809;56.390;-3.266;2023-08-31T03:11:44;2.28;;;0.80;;
23280;SDS011;11809;56.390;-3.266;2023-08-31T03:14:11;0.80;;;0.80;;
23280;SDS011;11809;56.390;-3.266;2023-08-31T03:16:38;1.15;;;0.85;;
23280;SDS011;11809;56.390;-3.266;2023-08-31T03:19:06;1.45;;;0.70;;
23280;SDS011;11809;56.390;-3.266;2023-08-31T03:21:34;1.25;;;0.80;;
23280;SDS011;11809;56.390;-3.266;2023-08-31T03:24:01;0.95;;;0.70;;
23280;SDS011;11809;56.390;-3.266;2023-08-31T03:26:29;1.02;;;0.63;;
23280;SDS011;11809;56.390;-3.266;2023-08-31T03:28:57;1.58;;;0.70;;
23280;SDS011;11809;56.390;-3.266;2023-08-31T03:31:24;0.82;;;0.82;;
23280;SDS011;11809;56.390;-3.266;2023-08-31T03:33:52;0.80;;;0.73;;
23280;SDS011;11809;56.390;-3.266;2023-08-31T03:36:19;3.15;;;0.60;;
23280;SDS011;11809;56.390;-3.266;2023-08-31T03:38:46;2.28;;;0.88;;
23280;SDS011;11809;56.390;-3.266;2023-08-31T03:41:13;0.60;;;0.60;;
23280;SDS011;11809;56.390;-3.266;2023-08-31T03:43:40;2.03;;;0.60;;
23280;SDS011;11809;56.390;-3.266;2023-08-31T03:46:07;0.55;;;0.55;;
23280;SDS011;11809;56.390;-3.266;2023-08-31T03:48:34;1.20;;;0.70;;
23280;SDS011;11809;56.390;-3.266;2023-08-31T03:51:01;0.70;;;0.70;;
23280;SDS011;11809;56.390;-3.266;2023-08-31T03:53:29;0.82;;;0.57;;
23280;SDS011;11809;56.390;-3.266;2023-08-31T03:55:57;0.75;;;0.75;;
23280;SDS011;11809;56.390;-3.266;2023-08-31T03:58:24;0.70;;;0.70;;
23280;SDS011;11809;56.390;-3.266;2023-08-31T04:00:51;1.85;;;0.68;;
23280;SDS011;11809;56.390;-3.266;2023-08-31T04:03:19;2.25;;;0.77;;
23280;SDS011;11809;56.390;-3.266;2023-08-31T04:05:46;0.73;;;0.60;;
23280;SDS011;11809;56.390;-3.266;2023-08-31T04:08:14;0.70;;;0.70;;
23280;SDS011;11809;56.390;-3.266;2023-08-31T04:10:41;1.33;;;0.70;;
23280;SDS011;11809;56.390;-3.266;2023-08-31T04:13:08;0.77;;;0.70;;
23280;SDS011;11809;56.390;-3.266;2023-08-31T04:15:36;1.75;;;0.55;;
23280;SDS011;11809;56.390;-3.266;2023-08-31T04:18:03;1.13;;;0.50;;
23280;SDS011;11809;56.390;-3.266;2023-08-31T04:20:32;0.50;;;0.50;;
23280;SDS011;11809;56.390;-3.266;2023-08-31T04:23:00;0.60;;;0.60;;
23280;SDS011;11809;56.390;-3.266;2023-08-31T04:25:28;0.43;;;0.43;;
23280;SDS011;11809;56.390;-3.266;2023-08-31T04:27:58;0.68;;;0.50;;
23280;SDS011;11809;56.390;-3.266;2023-08-31T04:30:25;0.75;;;0.43;;
23280;SDS011;11809;56.390;-3.266;2023-08-31T04:32:53;1.23;;;0.70;;
23280;SDS011;11809;56.390;-3.266;2023-08-31T04:35:21;0.52;;;0.52;;
23280;SDS011;11809;56.390;-3.266;2023-08-31T04:37:48;3.58;;;0.68;;
23280;SDS011;11809;56.390;-3.266;2023-08-31T04:40:16;3.92;;;0.50;;
23280;SDS011;11809;56.390;-3.266;2023-08-31T04:42:43;1.70;;;0.60;;
23280;SDS011;11809;56.390;-3.266;2023-08-31T04:45:11;4.20;;;0.77;;
23280;SDS011;11809;56.390;-3.266;2023-08-31T04:47:39;3.38;;;0.60;;
23280;SDS011;11809;56.390;-3.266;2023-08-31T04:50:06;0.60;;;0.60;;
23280;SDS011;11809;56.390;-3.266;2023-08-31T04:52:34;0.63;;;0.50;;
23280;SDS011;11809;56.390;-3.266;2023-08-31T04:55:05;26.13;;;2.22;;
23280;SDS011;11809;56.390;-3.266;2023-08-31T04:57:36;20.63;;;1.90;;
23280;SDS011;11809;56.390;-3.266;2023-08-31T05:00:04;14.73;;;1.70;;
23280;SDS011;11809;56.390;-3.266;2023-08-31T05:02:36;26.13;;;2.30;;
23280;SDS011;11809;56.390;-3.266;2023-08-31T05:05:04;14.07;;;1.40;;
23280;SDS011;11809;56.390;-3.266;2023-08-31T05:07:32;16.65;;;1.65;;
23280;SDS011;11809;56.390;-3.266;2023-08-31T05:09:59;13.18;;;1.60;;
23280;SDS011;11809;56.390;-3.266;2023-08-31T05:12:27;14.85;;;1.77;;
23280;SDS011;11809;56.390;-3.266;2023-08-31T05:14:54;10.32;;;1.75;;
23280;SDS011;11809;56.390;-3.266;2023-08-31T05:17:22;9.27;;;1.40;;
23280;SDS011;11809;56.390;-3.266;2023-08-31T05:19:49;6.85;;;1.17;;
23280;SDS011;11809;56.390;-3.266;2023-08-31T05:22:17;11.65;;;1.25;;
23280;SDS011;11809;56.390;-3.266;2023-08-31T05:24:45;10.32;;;1.70;;
23280;SDS011;11809;56.390;-3.266;2023-08-31T05:27:13;13.77;;;2.20;;
23280;SDS011;11809;56.390;-3.266;2023-08-31T05:29:41;16.05;;;2.80;;
23280;SDS011;11809;56.390;-3.266;2023-08-31T05:32:09;18.52;;;2.00;;
23280;SDS011;11809;56.390;-3.266;2023-08-31T05:34:36;17.90;;;2.40;;
23280;SDS011;11809;56.390;-3.266;2023-08-31T05:37:05;12.30;;;2.42;;
23280;SDS011;11809;56.390;-3.266;2023-08-31T05:39:36;17.02;;;3.00;;
23280;SDS011;11809;56.390;-3.266;2023-08-31T05:42:04;16.95;;;2.03;;
23280;SDS011;11809;56.390;-3.266;2023-08-31T05:44:32;15.70;;;2.10;;
23280;SDS011;11809;56.390;-3.266;2023-08-31T05:46:59;17.73;;;2.95;;
23280;SDS011;11809;56.390;-3.266;2023-08-31T05:49:28;13.38;;;1.90;;
23280;SDS011;11809;56.390;-3.266;2023-08-31T05:51:55;13.52;;;2.35;;
23280;SDS011;11809;56.390;-3.266;2023-08-31T05:54:25;16.52;;;2.38;;
23280;SDS011;11809;56.390;-3.266;2023-08-31T05:56:54;16.92;;;2.28;;
23280;SDS011;11809;56.390;-3.266;2023-08-31T05:59:22;11.57;;;1.85;;
23280;SDS011;11809;56.390;-3.266;2023-08-31T06:01:50;17.42;;;1.92;;
23280;SDS011;11809;56.390;-3.266;2023-08-31T06:06:49;9.82;;;1.67;;
23280;SDS011;11809;56.390;-3.266;2023-08-31T06:09:20;4.60;;;1.80;;
23280;SDS011;11809;56.390;-3.266;2023-08-31T06:11:48;9.20;;;1.40;;
23280;SDS011;11809;56.390;-3.266;2023-08-31T06:14:15;5.43;;;1.40;;
23280;SDS011;11809;56.390;-3.266;2023-08-31T06:16:43;3.97;;;1.58;;
23280;SDS011;11809;56.390;-3.266;2023-08-31T06:19:10;9.05;;;1.70;;
23280;SDS011;11809;56.390;-3.266;2023-08-31T06:21:38;5.35;;;1.52;;
23280;SDS011;11809;56.390;-3.266;2023-08-31T06:24:06;6.38;;;1.48;;
23280;SDS011;11809;56.390;-3.266;2023-08-31T06:26:36;3.42;;;1.65;;
23280;SDS011;11809;56.390;-3.266;2023-08-31T06:29:03;17.08;;;1.83;;
23280;SDS011;11809;56.390;-3.266;2023-08-31T06:31:31;9.27;;;2.08;;
23280;SDS011;11809;56.390;-3.266;2023-08-31T06:34:01;9.48;;;1.63;;
23280;SDS011;11809;56.390;-3.266;2023-08-31T06:38:59;5.40;;;1.00;;
23280;SDS011;11809;56.390;-3.266;2023-08-31T06:41:28;27.42;;;2.47;;
23280;SDS011;11809;56.390;-3.266;2023-08-31T06:43:57;31.00;;;2.40;;
23280;SDS011;11809;56.390;-3.266;2023-08-31T06:46:25;28.83;;;2.30;;
23280;SDS011;11809;56.390;-3.266;2023-08-31T06:48:53;12.90;;;1.60;;
23280;SDS011;11809;56.390;-3.266;2023-08-31T06:51:20;16.67;;;1.63;;
23280;SDS011;11809;56.390;-3.266;2023-08-31T06:53:50;9.48;;;1.35;;
23280;SDS011;11809;56.390;-3.266;2023-08-31T06:56:19;13.15;;;1.33;;
23280;SDS011;11809;56.390;-3.266;2023-08-31T06:58:47;10.98;;;1.48;;
23280;SDS011;11809;56.390;-3.266;2023-08-31T07:01:16;8.02;;;1.40;;
23280;SDS011;11809;56.390;-3.266;2023-08-31T07:03:43;8.40;;;1.08;;
23280;SDS011;11809;56.390;-3.266;2023-08-31T07:06:11;5.55;;;1.20;;
23280;SDS011;11809;56.390;-3.266;2023-08-31T07:08:39;3.00;;;1.17;;
23280;SDS011;11809;56.390;-3.266;2023-08-31T07:11:07;2.72;;;1.10;;
23280;SDS011;11809;56.390;-3.266;2023-08-31T07:13:35;4.50;;;1.17;;
23280;SDS011;11809;56.390;-3.266;2023-08-31T07:16:05;5.43;;;1.00;;
23280;SDS011;11809;56.390;-3.266;2023-08-31T07:18:33;3.78;;;0.90;;
23280;SDS011;11809;56.390;-3.266;2023-08-31T07:21:00;4.90;;;1.25;;
23280;SDS011;11809;56.390;-3.266;2023-08-31T07:23:28;4.70;;;0.90;;
23280;SDS011;11809;56.390;-3.266;2023-08-31T07:25:58;8.57;;;1.35;;
23280;SDS011;11809;56.390;-3.266;2023-08-31T07:28:29;9.23;;;1.30;;
23280;SDS011;11809;56.390;-3.266;2023-08-31T07:31:01;7.80;;;1.70;;
23280;SDS011;11809;56.390;-3.266;2023-08-31T07:33:32;13.57;;;1.60;;
23280;SDS011;11809;56.390;-3.266;2023-08-31T07:36:06;22.23;;;1.85;;
23280;SDS011;11809;56.390;-3.266;2023-08-31T07:38:34;16.20;;;2.45;;
23280;SDS011;11809;56.390;-3.266;2023-08-31T07:41:06;9.45;;;2.80;;
23280;SDS011;11809;56.390;-3.266;2023-08-31T07:43:34;14.27;;;3.40;;
23280;SDS011;11809;56.390;-3.266;2023-08-31T07:46:04;4.10;;;2.90;;
23280;SDS011;11809;56.390;-3.266;2023-08-31T07:48:32;3.95;;;2.95;;
23280;SDS011;11809;56.390;-3.266;2023-08-31T07:50:59;4.05;;;2.75;;
23280;SDS011;11809;56.390;-3.266;2023-08-31T07:53:27;7.93;;;2.90;;
23280;SDS011;11809;56.390;-3.266;2023-08-31T07:55:56;6.15;;;2.50;;
23280;SDS011;11809;56.390;-3.266;2023-08-31T07:58:23;4.78;;;2.30;;
23280;SDS011;11809;56.390;-3.266;2023-08-31T08:00:54;4.60;;;1.98;;
23280;SDS011;11809;56.390;-3.266;2023-08-31T08:03:23;4.45;;;2.05;;
23280;SDS011;11809;56.390;-3.266;2023-08-31T08:05:51;6.93;;;2.05;;
23280;SDS011;11809;56.390;-3.266;2023-08-31T08:08:19;20.35;;;2.53;;
23280;SDS011;11809;56.390;-3.266;2023-08-31T08:10:47;12.48;;;2.03;;
23280;SDS011;11809;56.390;-3.266;2023-08-31T08:13:19;17.92;;;2.53;;
23280;SDS011;11809;56.390;-3.266;2023-08-31T08:15:47;25.92;;;2.97;;
23280;SDS011;11809;56.390;-3.266;2023-08-31T08:18:15;23.83;;;2.55;;
23280;SDS011;11809;56.390;-3.266;2023-08-31T08:20:42;13.15;;;2.03;;
23280;SDS011;11809;56.390;-3.266;2023-08-31T08:23:11;9.95;;;1.85;;
23280;SDS011;11809;56.390;-3.266;2023-08-31T08:25:38;18.13;;;2.20;;
23280;SDS011;11809;56.390;-3.266;2023-08-31T08:28:09;30.83;;;2.88;;
23280;SDS011;11809;56.390;-3.266;2023-08-31T08:30:37;14.57;;;2.10;;
23280;SDS011;11809;56.390;-3.266;2023-08-31T08:33:05;22.70;;;2.05;;
23280;SDS011;11809;56.390;-3.266;2023-08-31T08:35:33;20.42;;;2.17;;
23280;SDS011;11809;56.390;-3.266;2023-08-31T08:38:00;22.80;;;2.42;;
23280;SDS011;11809;56.390;-3.266;2023-08-31T08:40:28;15.60;;;2.40;;
23280;SDS011;11809;56.390;-3.266;2023-08-31T08:42:57;16.58;;;2.13;;
23280;SDS011;11809;56.390;-3.266;2023-08-31T08:45:36;10.55;;;1.80;;
23280;SDS011;11809;56.390;-3.266;2023-08-31T08:48:07;9.48;;;2.00;;
23280;SDS011;11809;56.390;-3.266;2023-08-31T08:50:36;5.10;;;1.98;;
23280;SDS011;11809;56.390;-3.266;2023-08-31T08:53:04;11.35;;;1.85;;
23280;SDS011;11809;56.390;-3.266;2023-08-31T08:55:33;8.45;;;1.80;;
23280;SDS011;11809;56.390;-3.266;2023-08-31T08:58:01;13.30;;;2.00;;
23280;SDS011;11809;56.390;-3.266;2023-08-31T09:00:30;9.68;;;1.58;;
23280;SDS011;11809;56.390;-3.266;2023-08-31T09:02:58;6.35;;;1.73;;
23280;SDS011;11809;56.390;-3.266;2023-08-31T09:05:32;8.23;;;1.52;;
23280;SDS011;11809;56.390;-3.266;2023-08-31T09:08:07;4.72;;;1.17;;
23280;SDS011;11809;56.390;-3.266;2023-08-31T09:10:40;4.70;;;1.27;;
23280;SDS011;11809;56.390;-3.266;2023-08-31T09:13:09;23.77;;;2.75;;
23280;SDS011;11809;56.390;-3.266;2023-08-31T09:15:45;10.02;;;1.88;;
23280;SDS011;11809;56.390;-3.266;2023-08-31T09:18:35;29.95;;;2.80;;
23280;SDS011;11809;56.390;-3.266;2023-08-31T09:21:02;16.60;;;2.40;;
23280;SDS011;11809;56.390;-3.266;2023-08-31T09:23:30;30.60;;;3.28;;
23280;SDS011;11809;56.390;-3.266;2023-08-31T09:26:02;16.83;;;3.80;;
23280;SDS011;11809;56.390;-3.266;2023-08-31T09:28:31;15.80;;;3.17;;
23280;SDS011;11809;56.390;-3.266;2023-08-31T09:31:04;13.75;;;3.50;;
23280;SDS011;11809;56.390;-3.266;2023-08-31T09:33:36;13.32;;;3.08;;
23280;SDS011;11809;56.390;-3.266;2023-08-31T09:36:05;14.30;;;3.33;;
23280;SDS011;11809;56.390;-3.266;2023-08-31T09:38:41;15.90;;;3.80;;
23280;SDS011;11809;56.390;-3.266;2023-08-31T09:41:10;10.48;;;3.83;;
23280;SDS011;11809;56.390;-3.266;2023-08-31T09:43:37;3.92;;;3.53;;
23280;SDS011;11809;56.390;-3.266;2023-08-31T09:46:04;7.63;;;3.67;;
23280;SDS011;11809;56.390;-3.266;2023-08-31T09:48:32;7.88;;;3.90;;
23280;SDS011;11809;56.390;-3.266;2023-08-31T09:51:00;22.80;;;4.53;;
23280;SDS011;11809;56.390;-3.266;2023-08-31T09:53:31;16.23;;;4.55;;
23280;SDS011;11809;56.390;-3.266;2023-08-31T09:55:59;13.48;;;3.70;;
23280;SDS011;11809;56.390;-3.266;2023-08-31T09:58:26;18.90;;;4.10;;
23280;SDS011;11809;56.390;-3.266;2023-08-31T10:00:56;41.03;;;5.53;;
23280;SDS011;11809;56.390;-3.266;2023-08-31T10:03:25;12.63;;;3.78;;
23280;SDS011;11809;56.390;-3.266;2023-08-31T10:05:54;73.50;;;7.07;;
23280;SDS011;11809;56.390;-3.266;2023-08-31T10:08:23;25.55;;;4.95;;
23280;SDS011;11809;56.390;-3.266;2023-08-31T10:10:52;15.00;;;4.00;;
23280;SDS011;11809;56.390;-3.266;2023-08-31T10:13:21;15.55;;;3.33;;
23280;SDS011;11809;56.390;-3.266;2023-08-31T10:15:52;19.52;;;4.55;;
23280;SDS011;11809;56.390;-3.266;2023-08-31T10:18:19;31.38;;;4.03;;
23280;SDS011;11809;56.390;-3.266;2023-08-31T10:20:47;28.55;;;4.75;;
23280;SDS011;11809;56.390;-3.266;2023-08-31T10:23:15;22.45;;;4.20;;
23280;SDS011;11809;56.390;-3.266;2023-08-31T10:38:46;14.38;;;3.25;;
23280;SDS011;11809;56.390;-3.266;2023-08-31T10:41:32;10.95;;;3.00;;
23280;SDS011;11809;56.390;-3.266;2023-08-31T10:44:02;8.55;;;2.75;;
23280;SDS011;11809;56.390;-3.266;2023-08-31T10:46:50;5.85;;;2.42;;
23280;SDS011;11809;56.390;-3.266;2023-08-31T10:49:20;6.28;;;2.63;;
23280;SDS011;11809;56.390;-3.266;2023-08-31T10:52:34;7.53;;;2.88;;
23280;SDS011;11809;56.390;-3.266;2023-08-31T10:55:05;31.55;;;3.75;;
23280;SDS011;11809;56.390;-3.266;2023-08-31T10:57:35;13.77;;;2.88;;
23280;SDS011;11809;56.390;-3.266;2023-08-31T11:00:03;12.35;;;2.78;;
23280;SDS011;11809;56.390;-3.266;2023-08-31T11:02:35;12.63;;;2.90;;
23280;SDS011;11809;56.390;-3.266;2023-08-31T11:07:47;9.27;;;2.78;;
23280;SDS011;11809;56.390;-3.266;2023-08-31T11:10:19;8.85;;;2.65;;
23280;SDS011;11809;56.390;-3.266;2023-08-31T11:12:51;22.42;;;3.05;;
23280;SDS011;11809;56.390;-3.266;2023-08-31T11:15:22;24.65;;;3.65;;
23280;SDS011;11809;56.390;-3.266;2023-08-31T11:17:53;29.67;;;3.95;;
23280;SDS011;11809;56.390;-3.266;2023-08-31T11:20:22;31.55;;;4.63;;
23280;SDS011;11809;56.390;-3.266;2023-08-31T11:22:55;19.83;;;3.25;;
23280;SDS011;11809;56.390;-3.266;2023-08-31T11:25:23;29.58;;;3.55;;
23280;SDS011;11809;56.390;-3.266;2023-08-31T11:30:27;13.77;;;3.45;;
23280;SDS011;11809;56.390;-3.266;2023-08-31T11:33:05;15.80;;;3.30;;
23280;SDS011;11809;56.390;-3.266;2023-08-31T11:35:38;17.15;;;2.70;;
23280;SDS011;11809;56.390;-3.266;2023-08-31T11:38:13;12.07;;;2.70;;
23280;SDS011;11809;56.390;-3.266;2023-08-31T11:40:40;16.50;;;3.15;;
23280;SDS011;11809;56.390;-3.266;2023-08-31T11:43:08;8.68;;;2.50;;
23280;SDS011;11809;56.390;-3.266;2023-08-31T11:45:36;8.07;;;2.40;;
23280;SDS011;11809;56.390;-3.266;2023-08-31T11:48:06;7.53;;;2.38;;
23280;SDS011;11809;56.390;-3.266;2023-08-31T11:50:34;15.05;;;2.80;;
23280;SDS011;11809;56.390;-3.266;2023-08-31T11:53:02;8.13;;;2.50;;
23280;SDS011;11809;56.390;-3.266;2023-08-31T11:55:30;17.80;;;2.50;;
23280;SDS011;11809;56.390;-3.266;2023-08-31T11:58:00;31.98;;;3.47;;
23280;SDS011;11809;56.390;-3.266;2023-08-31T12:00:28;13.07;;;2.60;;
23280;SDS011;11809;56.390;-3.266;2023-08-31T12:03:02;19.05;;;2.50;;
23280;SDS011;11809;56.390;-3.266;2023-08-31T12:05:45;10.63;;;2.10;;
23280;SDS011;11809;56.390;-3.266;2023-08-31T12:10:42;6.75;;;2.00;;
23280;SDS011;11809;56.390;-3.266;2023-08-31T12:13:10;10.60;;;2.20;;
23280;SDS011;11809;56.390;-3.266;2023-08-31T12:15:40;10.45;;;2.00;;
23280;SDS011;11809;56.390;-3.266;2023-08-31T12:18:12;6.90;;;2.00;;
23280;SDS011;11809;56.390;-3.266;2023-08-31T12:20:47;7.95;;;1.98;;
23280;SDS011;11809;56.390;-3.266;2023-08-31T12:23:14;8.90;;;2.30;;
23280;SDS011;11809;56.390;-3.266;2023-08-31T12:25:48;9.32;;;2.13;;
23280;SDS011;11809;56.390;-3.266;2023-08-31T12:28:17;6.65;;;1.70;;
23280;SDS011;11809;56.390;-3.266;2023-08-31T12:30:48;3.58;;;1.50;;
23280;SDS011;11809;56.390;-3.266;2023-08-31T12:33:17;4.72;;;1.83;;
23280;SDS011;11809;56.390;-3.266;2023-08-31T12:35:46;4.20;;;1.63;;
23280;SDS011;11809;56.390;-3.266;2023-08-31T12:38:14;11.75;;;1.73;;
23280;SDS011;11809;56.390;-3.266;2023-08-31T12:40:42;5.50;;;1.67;;
23280;SDS011;11809;56.390;-3.266;2023-08-31T12:43:10;7.65;;;1.60;;
23280;SDS011;11809;56.390;-3.266;2023-08-31T12:45:37;4.28;;;1.50;;
23280;SDS011;11809;56.390;-3.266;2023-08-31T12:48:05;5.38;;;1.40;;
23280;SDS011;11809;56.390;-3.266;2023-08-31T12:50:33;4.93;;;1.38;;
23280;SDS011;11809;56.390;-3.266;2023-08-31T12:53:00;6.80;;;1.50;;
23280;SDS011;11809;56.390;-3.266;2023-08-31T12:55:28;10.45;;;2.22;;
23280;SDS011;11809;56.390;-3.266;2023-08-31T12:57:57;3.60;;;1.38;;
23280;SDS011;11809;56.390;-3.266;2023-08-31T13:00:25;5.20;;;1.60;;
23280;SDS011;11809;56.390;-3.266;2023-08-31T13:02:52;8.88;;;1.60;;
23280;SDS011;11809;56.390;-3.266;2023-08-31T13:05:20;6.40;;;1.15;;
23280;SDS011;11809;56.390;-3.266;2023-08-31T13:07:47;8.43;;;1.20;;
23280;SDS011;11809;56.390;-3.266;2023-08-31T13:10:15;5.50;;;1.50;;
23280;SDS011;11809;56.390;-3.266;2023-08-31T13:12:42;7.03;;;1.20;;
23280;SDS011;11809;56.390;-3.266;2023-08-31T13:15:09;4.28;;;1.42;;
23280;SDS011;11809;56.390;-3.266;2023-08-31T13:17:37;2.83;;;1.20;;
23280;SDS011;11809;56.390;-3.266;2023-08-31T13:20:04;7.90;;;1.13;;
23280;SDS011;11809;56.390;-3.266;2023-08-31T13:22:32;5.90;;;1.42;;
23280;SDS011;11809;56.390;-3.266;2023-08-31T13:24:59;5.18;;;1.58;;
23280;SDS011;11809;56.390;-3.266;2023-08-31T13:27:26;1.25;;;0.90;;
23280;SDS011;11809;56.390;-3.266;2023-08-31T13:29:54;3.53;;;1.13;;
23280;SDS011;11809;56.390;-3.266;2023-08-31T13:32:21;11.15;;;1.27;;
23280;SDS011;11809;56.390;-3.266;2023-08-31T13:34:49;5.93;;;1.30;;
23280;SDS011;11809;56.390;-3.266;2023-08-31T13:37:17;3.40;;;1.00;;
23280;SDS011;11809;56.390;-3.266;2023-08-31T13:39:44;2.30;;;1.02;;
23280;SDS011;11809;56.390;-3.266;2023-08-31T13:42:12;1.67;;;1.00;;
23280;SDS011;11809;56.390;-3.266;2023-08-31T13:44:40;1.45;;;0.98;;
23280;SDS011;11809;56.390;-3.266;2023-08-31T13:47:08;2.03;;;1.00;;
23280;SDS011;11809;56.390;-3.266;2023-08-31T13:49:36;8.70;;;1.20;;
23280;SDS011;11809;56.390;-3.266;2023-08-31T13:52:03;2.55;;;0.90;;
23280;SDS011;11809;56.390;-3.266;2023-08-31T13:54:33;2.42;;;0.88;;
23280;SDS011;11809;56.390;-3.266;2023-08-31T13:57:00;1.58;;;0.73;;
23280;SDS011;11809;56.390;-3.266;2023-08-31T13:59:27;3.58;;;1.05;;
23280;SDS011;11809;56.390;-3.266;2023-08-31T14:01:55;1.67;;;0.90;;
23280;SDS011;11809;56.390;-3.266;2023-08-31T14:04:22;3.22;;;0.88;;
23280;SDS011;11809;56.390;-3.266;2023-08-31T14:06:50;3.75;;;0.88;;
23280;SDS011;11809;56.390;-3.266;2023-08-31T14:09:17;1.52;;;0.70;;
23280;SDS011;11809;56.390;-3.266;2023-08-31T14:11:46;3.92;;;1.08;;
23280;SDS011;11809;56.390;-3.266;2023-08-31T14:14:14;1.95;;;0.82;;
23280;SDS011;11809;56.390;-3.266;2023-08-31T14:16:43;1.73;;;0.80;;
23280;SDS011;11809;56.390;-3.266;2023-08-31T14:19:11;1.83;;;0.75;;
23280;SDS011;11809;56.390;-3.266;2023-08-31T14:21:38;1.92;;;0.88;;
23280;SDS011;11809;56.390;-3.266;2023-08-31T14:24:06;2.30;;;0.85;;
23280;SDS011;11809;56.390;-3.266;2023-08-31T14:26:33;4.38;;;1.00;;
23280;SDS011;11809;56.390;-3.266;2023-08-31T14:29:01;3.38;;;0.98;;
23280;SDS011;11809;56.390;-3.266;2023-08-31T14:31:29;1.88;;;0.73;;
23280;SDS011;11809;56.390;-3.266;2023-08-31T14:33:57;2.92;;;0.90;;
23280;SDS011;11809;56.390;-3.266;2023-08-31T14:36:25;3.53;;;0.63;;
23280;SDS011;11809;56.390;-3.266;2023-08-31T14:38:54;2.60;;;0.70;;
23280;SDS011;11809;56.390;-3.266;2023-08-31T14:41:22;0.85;;;0.80;;
23280;SDS011;11809;56.390;-3.266;2023-08-31T14:43:49;5.45;;;0.82;;
23280;SDS011;11809;56.390;-3.266;2023-08-31T14:46:18;2.92;;;0.70;;
23280;SDS011;11809;56.390;-3.266;2023-08-31T14:48:45;2.05;;;0.70;;
23280;SDS011;11809;56.390;-3.266;2023-08-31T14:51:13;1.25;;;0.68;;
23280;SDS011;11809;56.390;-3.266;2023-08-31T14:53:42;1.60;;;0.65;;
23280;SDS011;11809;56.390;-3.266;2023-08-31T14:56:11;3.15;;;0.82;;
23280;SDS011;11809;56.390;-3.266;2023-08-31T14:58:38;1.10;;;0.80;;
23280;SDS011;11809;56.390;-3.266;2023-08-31T15:01:05;2.67;;;0.60;;
23280;SDS011;11809;56.390;-3.266;2023-08-31T15:03:32;1.98;;;0.77;;
23280;SDS011;11809;56.390;-3.266;2023-08-31T15:06:00;4.25;;;1.10;;
23280;SDS011;11809;56.390;-3.266;2023-08-31T15:08:37;1.50;;;0.82;;
23280;SDS011;11809;56.390;-3.266;2023-08-31T15:11:05;4.25;;;1.27;;
23280;SDS011;11809;56.390;-3.266;2023-08-31T15:13:33;32.50;;;2.03;;